CZCP

Cape Parry Airport

Cape Parry, Canada
METAR CZCP 191500Z AUTO 09026KT ////SM //// OVC002 M16/M18 A2963
Observed Flight Rules
Jan-19 @ 15:00 UTC (27 minutes ago)
Wind Clouds
90° at 26 knots
  • Overcast at 200' AGL
Temperatures Readings
Current -16°C / 3°F
Dewpoint -18°C / -0°F
Humidity 85%
Altimeter 29.63" Hg
Pressure 1003 hPa
Elevation 93
METAR CZCP 191500Z AUTO 09026KT ////SM //// OVC002 M16/M18 A2963
Observed Flight Rules
Jan-19 @ 15:00 UTC
(27 minutes ago)
Wind
90° at 26 knots
Clouds
  • Overcast at 200' AGL
Temperature Dewpoint
-16°C / 3°F -18°C / -0°F
Humidity Altimeter Pressure
85% 29.63" Hg 1003 hPa